Time;durP1;ratioP1;P1;durP2;ratioP2;P2;SDS_P1;SDS_P2;PMS_P1;PMS_P2;Temp;Humidity;BMP_temperature;BMP_pressure;BME280_temperature;BME280_humidity;BME280_pressure;Samples;Min_cycle;Max_cycle;Signal;HPM_P1;HPM_P2
2024/01/14 00:01:05;;;;;;;;;57.67;45.33;;;;;1.33;59.93;101896.41;2029440;28;3617978;-74
2024/01/14 00:02:18;;;;;;;;;55.00;40.67;;;;;1.33;60.51;101886.06;2007388;28;3602311;-74
2024/01/14 00:03:29;;;;;;;;;60.60;46.20;;;;;1.32;60.56;101882.59;1997874;28;3608576;-74
2024/01/14 00:04:42;;;;;;;;;53.33;41.67;;;;;1.33;59.80;101886.91;2031801;28;3595012;-74
2024/01/14 00:05:54;;;;;;;;;59.00;41.33;;;;;1.32;61.05;101877.41;2015868;28;3608588;-74
2024/01/14 00:07:07;;;;;;;;;51.57;40.00;;;;;1.33;60.75;101879.13;2032287;28;3602365;-74
2024/01/14 00:08:20;;;;;;;;;56.71;41.14;;;;;1.33;61.17;101876.53;2008942;28;3610628;-74
2024/01/14 00:09:32;;;;;;;;;57.14;40.29;;;;;1.34;60.39;101877.44;2008687;28;3630452;-74
2024/01/14 00:10:45;;;;;;;;;56.60;42.00;;;;;1.33;60.27;101871.38;2014125;28;3634580;-74
2024/01/14 00:11:57;;;;;;;;;55.67;43.67;;;;;1.35;60.61;101874.00;2006656;28;3606503;-74
2024/01/14 00:13:08;;;;;;;;;56.67;43.00;;;;;1.35;61.20;101871.44;2000053;28;3607530;-74
2024/01/14 00:14:20;;;;;;;;;57.33;41.67;;;;;1.36;60.13;101869.72;2029903;28;3606484;-74
2024/01/14 00:15:33;;;;;;;;;50.33;39.00;;;;;1.36;61.18;101864.53;2007822;28;3597118;-74
2024/01/14 00:16:44;;;;;;;;;55.00;40.00;;;;;1.36;60.79;101860.19;2018820;28;3603367;-74
2024/01/14 00:17:56;;;;;;;;;53.00;40.80;;;;;1.34;60.28;101857.59;2012277;28;3585622;-74
2024/01/14 00:19:09;;;;;;;;;50.00;39.00;;;;;1.36;60.78;101859.34;2030557;28;3599178;-74
2024/01/14 00:20:21;;;;;;;;;61.33;42.00;;;;;1.36;60.62;101846.41;2015781;28;3620024;-74
2024/01/14 00:21:33;;;;;;;;;55.67;39.33;;;;;1.34;60.62;101846.34;1992605;28;3620009;-74
2024/01/14 00:22:44;;;;;;;;;48.00;38.00;;;;;1.36;60.32;101851.59;2004938;28;3616901;-74
2024/01/14 00:23:56;;;;;;;;;53.67;41.33;;;;;1.34;61.11;101849.81;2005766;28;3596086;-74
2024/01/14 00:25:08;;;;;;;;;60.60;40.00;;;;;1.33;60.89;101842.88;2018171;28;2871058;-74
2024/01/14 00:26:20;;;;;;;;;57.00;42.00;;;;;1.33;60.48;101837.69;2016371;28;2860649;-74
2024/01/14 00:27:32;;;;;;;;;49.67;41.00;;;;;1.34;60.15;101834.28;1990720;28;3601232;-74
2024/01/14 00:28:44;;;;;;;;;50.67;42.67;;;;;1.33;60.15;101837.69;2021386;28;3596071;-74
2024/01/14 00:29:57;;;;;;;;;51.33;42.67;;;;;1.34;60.13;101831.69;2006771;28;3587737;-74
2024/01/14 00:31:08;;;;;;;;;55.00;41.50;;;;;1.33;60.35;101840.28;1992564;28;2852337;-74
2024/01/14 00:32:21;;;;;;;;;43.60;36.00;;;;;1.31;60.66;101826.41;2033458;28;3590856;-74
2024/01/14 00:33:32;;;;;;;;;57.00;41.00;;;;;1.30;60.13;101832.47;2015682;28;3607518;-74
2024/01/14 00:34:45;;;;;;;;;49.57;39.86;;;;;1.29;59.90;101825.50;2007489;28;3602339;-74
2024/01/14 00:36:00;;;;;;;;;52.60;37.80;;;;;1.29;60.56;101829.81;1996206;28;2876281;-74
2024/01/14 00:37:12;;;;;;;;;46.00;39.67;;;;;1.27;60.82;101821.13;2015525;28;3589822;-74
2024/01/14 00:38:24;;;;;;;;;53.33;39.67;;;;;1.26;60.62;101825.44;2031969;28;3607530;-74
2024/01/14 00:39:39;;;;;;;;;42.00;36.33;;;;;1.25;60.41;101821.13;2031370;28;3592956;-74
2024/01/14 00:40:50;;;;;;;;;48.67;37.00;;;;;1.25;61.03;101821.13;2015032;28;3616928;-74
2024/01/14 00:42:01;;;;;;;;;54.60;39.40;;;;;1.25;61.09;101815.03;1992387;28;2869010;-74
2024/01/14 00:43:13;;;;;;;;;47.33;36.33;;;;;1.25;60.16;101822.81;2031325;28;3603324;-74
2024/01/14 00:44:26;;;;;;;;;45.86;38.71;;;;;1.24;60.55;101814.16;2033271;28;3604788;-74
2024/01/14 00:45:38;;;;;;;;;48.67;39.33;;;;;1.24;60.18;101814.16;2008200;28;3592924;-74
2024/01/14 00:46:50;;;;;;;;;40.67;32.00;;;;;1.24;60.80;101806.38;2030375;28;3607530;-74
2024/01/14 00:48:02;;;;;;;;;37.67;34.33;;;;;1.23;60.44;101813.28;2025129;28;3601639;-74
2024/01/14 00:49:14;;;;;;;;;50.33;37.00;;;;;1.22;60.27;101801.19;2027532;28;3623262;-74
2024/01/14 00:50:26;;;;;;;;;49.00;38.67;;;;;1.23;60.00;101799.47;2004959;28;3595047;-74
2024/01/14 00:51:38;;;;;;;;;47.67;38.00;;;;;1.22;60.57;101800.31;2022098;28;3600250;-74
2024/01/14 00:52:50;;;;;;;;;41.00;30.67;;;;;1.20;60.46;101792.50;2031914;28;3598173;-74
2024/01/14 00:54:02;;;;;;;;;48.80;36.80;;;;;1.20;60.48;101789.03;2011853;28;3591843;-74
2024/01/14 00:55:14;;;;;;;;;35.67;32.33;;;;;1.21;60.48;101791.66;2030558;28;3601341;-74
2024/01/14 00:56:25;;;;;;;;;39.00;32.33;;;;;1.20;60.26;101784.75;2025464;28;3600265;-74
2024/01/14 00:57:37;;;;;;;;;51.00;36.00;;;;;1.20;60.86;101776.09;2031934;28;3594012;-74
2024/01/14 00:58:49;;;;;;;;;35.67;30.00;;;;;1.19;60.67;101771.72;2031645;28;3595090;-74
2024/01/14 01:00:01;;;;;;;;;40.33;30.00;;;;;1.18;60.43;101778.66;2031224;28;3618968;-74
2024/01/14 01:01:13;;;;;;;;;44.00;34.67;;;;;1.18;60.29;101778.66;2001752;28;3611712;-74
2024/01/14 01:02:25;;;;;;;;;40.00;27.00;;;;;1.18;60.07;101782.94;2009312;28;3600249;-74
2024/01/14 01:03:38;;;;;;;;;41.00;35.14;;;;;1.17;60.02;101781.19;2038445;28;3605803;-74
2024/01/14 01:04:50;;;;;;;;;49.33;37.33;;;;;1.17;59.85;101770.84;2008416;28;3592928;-74
2024/01/14 01:06:02;;;;;;;;;38.33;34.00;;;;;1.16;60.23;101776.88;2032139;28;3596093;-74
2024/01/14 01:07:14;;;;;;;;;41.67;33.67;;;;;1.17;60.09;101776.91;2000615;28;3606503;-74
2024/01/14 01:08:26;;;;;;;;;35.33;30.67;;;;;1.15;60.46;101773.41;2002923;28;3606517;-74
2024/01/14 01:09:38;;;;;;;;;46.67;34.67;;;;;1.16;60.38;101772.53;2025005;28;3601280;-74
2024/01/14 01:10:50;;;;;;;;;39.67;34.00;;;;;1.16;60.05;101774.28;2032864;28;3607527;-74
2024/01/14 01:12:02;;;;;;;;;45.67;34.33;;;;;1.16;60.69;101779.47;1993046;28;3600228;-74
2024/01/14 01:13:14;;;;;;;;;41.33;32.00;;;;;1.16;59.97;101776.88;2005420;28;3598146;-74
2024/01/14 01:14:25;;;;;;;;;30.00;25.67;;;;;1.15;60.37;101780.28;2002288;28;3591933;-74
2024/01/14 01:15:37;;;;;;;;;31.33;24.00;;;;;1.14;60.08;101781.16;2027922;28;3576301;-74
2024/01/14 01:16:49;;;;;;;;;33.67;26.33;;;;;1.13;59.57;101788.03;2033070;28;3584633;-74
2024/01/14 01:18:02;;;;;;;;;40.33;34.67;;;;;1.11;60.08;101781.94;2032280;28;3597185;-74
2024/01/14 01:19:13;;;;;;;;;32.67;29.00;;;;;1.09;60.29;101788.78;2015118;28;3591936;-74
2024/01/14 01:20:25;;;;;;;;;35.33;28.00;;;;;1.09;60.34;101794.84;2032435;28;3606505;-74
2024/01/14 01:21:37;;;;;;;;;35.33;27.33;;;;;1.09;60.22;101788.78;2032938;28;3597186;-74
2024/01/14 01:22:51;;;;;;;;;37.00;28.71;;;;;1.08;60.05;101793.09;2008737;28;3608560;-74
2024/01/14 01:24:02;;;;;;;;;48.00;34.67;;;;;1.08;59.88;101789.63;1992875;28;3621087;-74
2024/01/14 01:25:14;;;;;;;;;46.00;32.67;;;;;1.06;60.31;101789.56;2005975;28;3619353;-74
2024/01/14 01:26:26;;;;;;;;;44.67;29.00;;;;;1.02;60.27;101787.75;2000689;28;3604488;-74
2024/01/14 01:27:38;;;;;;;;;34.00;29.00;;;;;1.02;60.44;101787.75;2032882;28;3576301;-74
2024/01/14 01:28:50;;;;;;;;;32.67;25.67;;;;;1.00;60.39;101787.72;2032842;28;3592936;-74
2024/01/14 01:30:03;;;;;;;;;33.33;28.00;;;;;1.02;60.18;101785.16;2028175;28;3589810;-74
2024/01/14 01:31:14;;;;;;;;;34.33;25.67;;;;;1.02;59.59;101785.16;2016923;28;3605468;-74
2024/01/14 01:32:27;;;;;;;;;34.33;24.00;;;;;1.02;60.88;101782.59;2032240;28;3580892;-74
2024/01/14 01:33:38;;;;;;;;;36.67;31.00;;;;;1.02;60.21;101777.41;2021984;28;3588797;-74
2024/01/14 01:34:50;;;;;;;;;37.00;26.67;;;;;1.03;60.26;101780.88;2029298;28;3584595;-74
2024/01/14 01:36:02;;;;;;;;;34.00;25.33;;;;;1.03;60.01;101779.16;2028818;28;3591894;-74
2024/01/14 01:37:14;;;;;;;;;43.67;33.00;;;;;1.03;60.57;101778.28;2026864;28;3608556;-74
2024/01/14 01:38:26;;;;;;;;;40.67;29.67;;;;;1.03;60.42;101779.16;2029392;28;3614814;-74
2024/01/14 01:39:38;;;;;;;;;39.67;31.67;;;;;1.02;60.85;101777.41;2009094;28;3607576;-74
2024/01/14 01:40:50;;;;;;;;;39.20;32.00;;;;;1.01;60.81;101773.09;2040650;28;1849275;-74
2024/01/14 01:42:01;;;;;;;;;34.67;22.67;;;;;1.02;60.05;101777.41;2014792;28;3606472;-74
2024/01/14 01:43:13;;;;;;;;;28.00;20.33;;;;;1.02;60.67;101772.22;2006136;28;3572155;-74
2024/01/14 01:44:25;;;;;;;;;27.80;21.60;;;;;1.02;59.98;101772.22;2041198;28;1847215;-74
2024/01/14 01:45:37;;;;;;;;;43.33;30.00;;;;;1.00;59.89;101771.31;1992160;28;3613804;-74
2024/01/14 01:46:49;;;;;;;;;29.00;27.33;;;;;1.01;60.28;101770.50;2004018;28;2831143;-74
2024/01/14 01:48:01;;;;;;;;;33.67;27.33;;;;;0.99;60.58;101766.97;2008216;28;3593270;-74
2024/01/14 01:49:13;;;;;;;;;36.00;28.67;;;;;0.99;60.31;101766.97;2027271;28;3588769;-74
2024/01/14 01:50:24;;;;;;;;;34.00;25.00;;;;;0.97;60.68;101764.34;2034853;28;1847255;-74
2024/01/14 01:51:37;;;;;;;;;29.00;25.67;;;;;0.96;60.12;101767.81;1993658;28;3577376;-74
2024/01/14 01:52:49;;;;;;;;;35.00;29.33;;;;;0.96;60.64;101760.03;2015662;28;3597136;-74
2024/01/14 01:54:02;;;;;;;;;31.80;22.60;;;;;0.97;60.39;101768.66;2033974;28;2847103;-74
2024/01/14 01:55:14;;;;;;;;;27.33;23.33;;;;;0.95;60.30;101767.75;2006757;28;3563777;-74
2024/01/14 01:56:25;;;;;;;;;36.00;28.00;;;;;0.95;60.51;101760.84;2016549;28;2848574;-74
2024/01/14 01:57:38;;;;;;;;;31.00;25.83;;;;;0.94;60.17;101759.09;2017901;27;2844059;-74
2024/01/14 01:58:52;;;;;;;;;30.20;26.40;;;;;0.94;60.27;101755.66;2008026;28;2841943;-74
2024/01/14 02:00:04;;;;;;;;;42.00;29.33;;;;;0.93;60.31;101754.78;1993525;28;3599174;-74
2024/01/14 02:01:15;;;;;;;;;38.67;32.67;;;;;0.93;60.60;101748.72;2016698;28;3595066;-74
2024/01/14 02:02:27;;;;;;;;;34.50;27.00;;;;;0.92;61.05;101752.13;2026506;28;2836735;-74
2024/01/14 02:03:40;;;;;;;;;38.60;30.20;;;;;0.92;60.68;101736.59;2017849;28;1845072;-74
2024/01/14 02:04:51;;;;;;;;;48.33;34.33;;;;;0.93;60.83;101746.13;2016114;28;3596053;-74
2024/01/14 02:06:05;;;;;;;;;38.33;34.00;;;;;0.93;60.41;101748.72;2023602;28;3583572;-74
2024/01/14 02:07:19;;;;;;;;;49.00;36.67;;;;;0.90;60.54;101739.16;2016091;28;3596076;-74
2024/01/14 02:08:30;;;;;;;;;33.00;27.00;;;;;0.91;60.33;101747.81;2007130;28;3587732;-74
2024/01/14 02:09:43;;;;;;;;;39.71;27.57;;;;;0.88;60.41;101743.44;2032546;28;3592288;-74
2024/01/14 02:10:55;;;;;;;;;37.00;29.33;;;;;0.89;60.17;101745.16;2010137;28;3587748;-74
2024/01/14 02:12:07;;;;;;;;;31.67;27.67;;;;;0.86;60.50;101735.63;2031894;28;3598152;-74
2024/01/14 02:13:20;;;;;;;;;31.67;28.17;;;;;0.87;61.18;101741.66;2022064;28;2852304;-74
2024/01/14 02:14:33;;;;;;;;;34.33;28.67;;;;;0.87;60.67;101744.25;2009891;28;3588804;-74
2024/01/14 02:15:44;;;;;;;;;37.67;26.33;;;;;0.86;60.91;101740.81;2016446;28;3584632;-74
2024/01/14 02:16:56;;;;;;;;;33.33;30.33;;;;;0.87;60.49;101739.97;2030704;28;3598148;-74
2024/01/14 02:18:09;;;;;;;;;31.67;28.50;;;;;0.87;61.12;101729.59;2049141;28;2829429;-74
2024/01/14 02:19:21;;;;;;;;;41.67;33.67;;;;;0.88;60.70;101735.66;2003151;28;3587716;-74
2024/01/14 02:20:32;;;;;;;;;31.50;22.50;;;;;0.88;61.41;101728.78;2045303;28;1837819;-74
2024/01/14 02:21:51;;;;;;;;;27.67;27.67;;;;;0.91;60.98;101729.69;1999235;28;3588861;-74
2024/01/14 02:23:06;;;;;;;;;37.33;29.00;;;;;0.91;61.00;101724.50;2016638;28;3591925;-74
2024/01/14 02:24:31;;;;;;;;;39.33;30.33;;;;;0.92;60.85;101731.41;2016548;28;3604752;-74
2024/01/14 02:25:42;;;;;;;;;34.00;28.00;;;;;0.93;61.24;101720.22;2016218;28;3597515;-74
2024/01/14 02:26:54;;;;;;;;;33.67;28.00;;;;;0.94;60.52;101724.59;2032326;28;3589846;-74
2024/01/14 02:28:07;;;;;;;;;41.00;31.33;;;;;0.93;60.82;101725.41;2032403;28;3610754;-74
2024/01/14 02:29:22;;;;;;;;;33.67;27.67;;;;;0.93;60.43;101725.41;1991002;28;3593019;-74
2024/01/14 02:30:35;;;;;;;;;32.00;27.00;;;;;0.89;60.72;101720.16;2015571;28;3596068;-74
2024/01/14 02:31:47;;;;;;;;;29.67;24.33;;;;;0.89;61.16;101719.28;2015348;28;3584674;-74
2024/01/14 02:32:59;;;;;;;;;40.33;32.33;;;;;0.90;60.52;101718.44;2014896;28;3607563;-74
2024/01/14 02:34:12;;;;;;;;;29.33;29.33;;;;;0.89;60.72;101720.16;2006264;28;3589811;-74
2024/01/14 02:35:23;;;;;;;;;39.00;34.67;;;;;0.89;60.30;101714.97;2016436;28;3597091;-74
2024/01/14 02:36:35;;;;;;;;;34.00;24.67;;;;;0.87;60.61;101719.25;2031757;28;3589866;-74
2024/01/14 02:37:47;;;;;;;;;44.33;34.33;;;;;0.85;60.46;101720.94;2033044;28;3596438;-74
2024/01/14 02:38:59;;;;;;;;;33.00;26.00;;;;;0.86;61.01;101714.03;2025992;28;3584623;-74
2024/01/14 02:40:11;;;;;;;;;41.33;29.33;;;;;0.84;60.45;101716.56;2032897;28;3585670;-74
2024/01/14 02:41:23;;;;;;;;;38.00;28.33;;;;;0.83;61.00;101708.78;2015712;28;3605843;-74
2024/01/14 02:42:35;;;;;;;;;36.67;27.67;;;;;0.82;60.99;101710.50;2032045;28;3605442;-74
2024/01/14 02:43:47;;;;;;;;;39.33;31.00;;;;;0.83;60.38;101709.66;2033337;28;3588812;-74
2024/01/14 02:44:58;;;;;;;;;31.00;20.75;;;;;0.83;60.85;101706.19;2041612;28;1835196;-74
2024/01/14 02:46:09;;;;;;;;;28.33;22.00;;;;;0.82;60.74;101704.44;1993453;28;3587092;-74
2024/01/14 02:47:22;;;;;;;;;31.33;28.50;;;;;0.80;60.85;101699.22;2049840;28;2847089;-74
2024/01/14 02:48:34;;;;;;;;;32.67;26.00;;;;;0.79;60.68;101694.91;2009323;28;2822328;-74
2024/01/14 02:49:45;;;;;;;;;34.67;21.67;;;;;0.78;60.42;101698.31;2012282;28;3603371;-74
2024/01/14 02:50:57;;;;;;;;;27.33;23.00;;;;;0.73;60.15;101687.88;2032819;28;2831651;-74
2024/01/14 02:52:09;;;;;;;;;30.67;27.00;;;;;0.70;59.69;101686.91;2015035;28;3575264;-74
2024/01/14 02:53:20;;;;;;;;;29.00;24.00;;;;;0.65;60.85;101685.09;2033574;28;3559615;-74
2024/01/14 02:54:32;;;;;;;;;27.33;24.67;;;;;0.60;60.22;101686.69;2033472;28;2835751;-74
2024/01/14 02:55:44;;;;;;;;;37.00;26.33;;;;;0.56;60.14;101687.47;2015123;28;3584591;-74
2024/01/14 02:56:57;;;;;;;;;35.43;24.14;;;;;0.53;60.24;101684.78;2049117;28;2862802;-74
2024/01/14 02:58:10;;;;;;;;;29.80;22.00;;;;;0.52;60.12;101686.50;2032111;28;2839832;-74
2024/01/14 02:59:22;;;;;;;;;35.67;25.67;;;;;0.51;60.35;101689.06;2009159;28;3600247;-74
2024/01/14 03:00:34;;;;;;;;;37.67;27.67;;;;;0.51;60.50;101686.47;2032317;28;3607880;-74
2024/01/14 03:01:48;;;;;;;;;32.33;29.67;;;;;0.49;60.76;101681.28;2031881;28;3599284;-74
2024/01/14 03:02:59;;;;;;;;;23.00;21.00;;;;;0.50;60.98;101689.88;2014002;28;2836732;-74
2024/01/14 03:04:10;;;;;;;;;22.00;20.00;;;;;0.50;60.66;101682.13;2003658;28;2842939;-74
2024/01/14 03:05:23;;;;;;;;;29.67;23.50;;;;;0.50;60.77;101687.31;2027244;28;2838795;-74
2024/01/14 03:06:36;;;;;;;;;27.17;23.17;;;;;0.48;60.28;101687.28;2024598;28;2849219;-74
2024/01/14 03:07:47;;;;;;;;;27.25;23.25;;;;;0.43;60.22;101682.00;2011034;28;1846145;-74
2024/01/14 03:09:00;;;;;;;;;24.33;23.00;;;;;0.35;60.08;101678.31;2020628;28;1845082;-74
2024/01/14 03:10:13;;;;;;;;;35.17;23.33;;;;;0.31;60.85;101679.97;2020689;28;1834719;-74
2024/01/14 03:11:26;;;;;;;;;32.00;27.40;;;;;0.29;60.40;101678.19;2011364;28;2852325;-74
2024/01/14 03:12:38;;;;;;;;;35.67;24.33;;;;;0.27;60.60;101678.13;2010379;28;2831651;-74
2024/01/14 03:13:48;;;;;;;;;31.00;23.00;;;;;0.26;60.59;101671.22;2013410;28;2848213;-74
2024/01/14 03:15:00;;;;;;;;;26.50;22.00;;;;;0.25;60.77;101673.78;2002352;28;2819027;-74
2024/01/14 03:16:11;;;;;;;;;37.67;29.67;;;;;0.24;60.54;101683.25;1999781;28;2843102;-74
2024/01/14 03:17:23;;;;;;;;;44.00;31.00;;;;;0.20;60.84;101682.28;2010012;28;3597110;-74
2024/01/14 03:18:35;;;;;;;;;38.00;30.00;;;;;0.18;60.95;101681.38;2021370;28;3612720;-74
2024/01/14 03:19:47;;;;;;;;;43.33;33.67;;;;;0.20;60.84;101681.41;2008365;28;3605471;-74
2024/01/14 03:20:58;;;;;;;;;30.67;26.00;;;;;0.20;60.45;101678.81;2008239;28;3578396;-74
2024/01/14 03:22:10;;;;;;;;;34.67;27.00;;;;;0.20;60.95;101679.69;2032481;28;3582564;-74
2024/01/14 03:23:22;;;;;;;;;42.33;37.00;;;;;0.18;60.65;101664.97;2032870;28;3594350;-74
2024/01/14 03:24:34;;;;;;;;;44.00;35.00;;;;;0.19;60.71;101675.38;2031675;28;3608564;-74
2024/01/14 03:25:46;;;;;;;;;36.33;32.33;;;;;0.20;61.06;101671.06;2008496;28;3602338;-74
2024/01/14 03:26:58;;;;;;;;;31.33;29.67;;;;;0.21;61.08;101672.81;2032661;28;2837863;-74
2024/01/14 03:28:10;;;;;;;;;46.33;35.33;;;;;0.21;60.92;101665.94;2016144;28;3597121;-74
2024/01/14 03:29:21;;;;;;;;;34.33;27.67;;;;;0.24;61.24;101669.44;2007519;28;2833046;-74
2024/01/14 03:30:33;;;;;;;;;37.00;32.67;;;;;0.24;61.34;101672.03;2013882;28;3595022;-74
2024/01/14 03:31:46;;;;;;;;;37.14;32.29;;;;;0.25;61.41;101663.44;2023976;28;3604424;-74
2024/01/14 03:32:58;;;;;;;;;48.00;36.00;;;;;0.27;61.53;101669.53;2007842;28;3596097;-74
2024/01/14 03:34:10;;;;;;;;;41.00;36.33;;;;;0.29;61.46;101670.44;2027218;28;3598334;-74
2024/01/14 03:35:22;;;;;;;;;45.67;36.33;;;;;0.29;61.20;101671.31;2028218;28;3617930;-74
2024/01/14 03:36:33;;;;;;;;;34.00;26.67;;;;;0.29;61.07;101663.56;1999805;28;3580452;-74
2024/01/14 03:37:45;;;;;;;;;35.33;27.67;;;;;0.30;61.13;101667.00;2032267;28;3596484;-74
2024/01/14 03:38:57;;;;;;;;;42.67;34.67;;;;;0.33;61.43;101669.66;2007783;28;3584619;-74
2024/01/14 03:40:10;;;;;;;;;41.33;31.00;;;;;0.34;61.07;101671.44;2027469;28;3624196;-74
2024/01/14 03:41:21;;;;;;;;;38.67;36.33;;;;;0.36;61.58;101669.75;2016270;28;3591898;-74
2024/01/14 03:42:33;;;;;;;;;37.00;31.00;;;;;0.37;60.93;101663.72;2030553;28;3602327;-74
2024/01/14 03:43:45;;;;;;;;;28.33;22.00;;;;;0.36;60.77;101661.09;2008269;28;3596072;-74
2024/01/14 03:44:57;;;;;;;;;42.00;33.00;;;;;0.35;60.85;101660.22;2031922;28;3594005;-74
2024/01/14 03:46:09;;;;;;;;;39.00;30.67;;;;;0.34;60.97;101661.09;2030781;28;3606499;-74
2024/01/14 03:47:21;;;;;;;;;42.00;35.00;;;;;0.33;61.31;101651.56;2006231;28;2818459;-74
2024/01/14 03:48:32;;;;;;;;;40.00;33.00;;;;;0.35;60.77;101651.63;2021143;28;3592960;-74
2024/01/14 03:49:44;;;;;;;;;43.33;34.67;;;;;0.36;61.54;101648.16;2029661;28;3600353;-74
2024/01/14 03:50:55;;;;;;;;;16.50;13.00;;;;;0.36;61.10;101646.47;2007929;28;2803400;-74
2024/01/14 03:52:06;;;;;;;;;18.67;9.00;;;;;0.39;61.69;101650.84;2020332;28;1859657;-74
2024/01/14 03:53:18;;;;;;;;;38.50;30.00;;;;;0.40;61.46;101643.09;2017452;28;1847144;-74
2024/01/14 03:54:29;;;;;;;;;32.00;24.67;;;;;0.39;61.27;101640.50;1991394;28;3600208;-74
2024/01/14 03:55:42;;;;;;;;;41.14;29.86;;;;;0.40;61.06;101645.69;2032721;28;3610672;-74
2024/01/14 03:56:54;;;;;;;;;34.67;27.67;;;;;0.41;60.96;101638.81;1992630;28;3582528;-74
2024/01/14 03:58:06;;;;;;;;;34.33;28.00;;;;;0.40;61.24;101643.09;2031683;28;3593321;-74
2024/01/14 03:59:18;;;;;;;;;39.00;34.00;;;;;0.41;61.33;101639.69;2026359;28;3575637;-74
2024/01/14 04:00:30;;;;;;;;;42.67;36.00;;;;;0.42;61.03;101638.00;2026180;28;3565884;-74
2024/01/14 04:01:44;;;;;;;;;46.67;32.33;;;;;0.40;61.32;101632.75;2016336;28;3576266;-74
2024/01/14 04:02:55;;;;;;;;;38.50;33.00;;;;;0.40;61.24;101627.59;2016568;28;2850253;-73
2024/01/14 04:04:07;;;;;;;;;44.67;33.33;;;;;0.39;61.19;101623.28;2015194;28;3611688;-74
2024/01/14 04:05:19;;;;;;;;;39.33;29.00;;;;;0.41;61.73;101620.72;2009661;28;3583585;-74
2024/01/14 04:06:31;;;;;;;;;43.00;31.00;;;;;0.41;61.54;101618.13;2032351;28;3603777;-74
2024/01/14 04:07:43;;;;;;;;;30.33;26.33;;;;;0.41;61.36;101613.81;2016140;28;3574182;-73
2024/01/14 04:08:55;;;;;;;;;33.00;27.00;;;;;0.42;61.44;101607.81;2032542;28;3597117;-74
2024/01/14 04:10:07;;;;;;;;;40.67;29.00;;;;;0.43;61.13;101606.97;2028886;28;3595015;-74
2024/01/14 04:11:18;;;;;;;;;42.33;32.67;;;;;0.44;61.27;101608.69;2013982;28;3592967;-74
2024/01/14 04:12:30;;;;;;;;;42.67;34.33;;;;;0.47;61.71;101609.66;2031946;28;3607561;-74
2024/01/14 04:13:43;;;;;;;;;34.00;29.83;;;;;0.43;60.80;101596.63;2045510;28;2830442;-74
2024/01/14 04:14:55;;;;;;;;;40.33;29.33;;;;;0.44;61.24;101600.09;2007994;28;3599182;-74
2024/01/14 04:16:07;;;;;;;;;35.00;24.00;;;;;0.43;60.82;101601.81;2031702;28;3575290;-74
2024/01/14 04:17:19;;;;;;;;;39.33;33.00;;;;;0.46;61.32;101589.78;2030395;28;3602330;-74
2024/01/14 04:18:31;;;;;;;;;38.67;36.00;;;;;0.46;61.50;101594.94;2032605;28;3587094;-74
2024/01/14 04:19:43;;;;;;;;;30.00;25.00;;;;;0.43;61.04;101581.09;2030983;28;3589818;-74
2024/01/14 04:20:55;;;;;;;;;42.67;31.67;;;;;0.43;61.45;101583.69;2028189;28;3581488;-74
2024/01/14 04:22:07;;;;;;;;;30.67;27.33;;;;;0.44;61.37;101593.19;2023747;28;2851427;-74
2024/01/14 04:23:18;;;;;;;;;35.33;30.00;;;;;0.44;61.61;101590.59;2014567;28;3584615;-74
2024/01/14 04:24:30;;;;;;;;;32.33;26.67;;;;;0.44;61.90;101585.41;2030768;28;2825266;-74
2024/01/14 04:25:41;;;;;;;;;31.67;26.67;;;;;0.46;61.60;101588.06;2014460;28;3577382;-74
2024/01/14 04:26:53;;;;;;;;;36.67;28.33;;;;;0.46;61.60;101584.59;2032569;28;3586695;-74
2024/01/14 04:28:05;;;;;;;;;31.00;29.33;;;;;0.47;61.84;101588.94;2030538;28;3582516;-73
2024/01/14 04:29:16;;;;;;;;;29.00;23.00;;;;;0.46;61.38;101590.66;2024555;28;2831518;-74
2024/01/14 04:30:28;;;;;;;;;42.00;31.00;;;;;0.47;61.06;101587.22;2008720;28;3582515;-74
2024/01/14 04:31:40;;;;;;;;;34.33;26.67;;;;;0.47;60.88;101587.22;2033642;28;3605474;-74
2024/01/14 04:32:52;;;;;;;;;42.67;34.00;;;;;0.44;61.01;101580.25;2032511;28;3587746;-74
2024/01/14 04:34:04;;;;;;;;;43.00;36.00;;;;;0.45;61.53;101581.13;2029690;28;2832625;-74
2024/01/14 04:35:17;;;;;;;;;32.17;27.67;;;;;0.45;61.29;101586.31;2042794;28;1845135;-74
2024/01/14 04:36:29;;;;;;;;;44.00;33.67;;;;;0.44;61.58;101582.84;1991702;28;3580852;-74
2024/01/14 04:37:40;;;;;;;;;38.00;30.33;;;;;0.46;61.60;101579.41;2015829;28;3590880;-74
2024/01/14 04:38:52;;;;;;;;;37.33;31.67;;;;;0.44;61.42;101582.84;2032320;28;3589826;-74
2024/01/14 04:40:04;;;;;;;;;26.25;23.50;;;;;0.44;61.14;101582.84;2039571;28;1834739;-74
2024/01/14 04:41:15;;;;;;;;;41.00;29.67;;;;;0.44;61.59;101579.41;1993078;28;3596458;-73
2024/01/14 04:42:28;;;;;;;;;53.00;30.67;;;;;0.42;61.61;101581.94;2032031;28;3586707;-74
2024/01/14 04:43:41;;;;;;;;;42.33;31.67;;;;;0.42;61.56;101583.66;2044330;28;1826336;-74
2024/01/14 04:44:54;;;;;;;;;38.67;28.83;;;;;0.41;61.16;101576.72;2018255;28;1838860;-73
2024/01/14 04:46:10;;;;;;;;;36.67;30.33;;;;;0.40;61.62;101581.03;1992583;28;3575248;-74
2024/01/14 04:47:22;;;;;;;;;41.00;31.00;;;;;0.40;61.32;101577.56;2015627;28;3562800;-74
2024/01/14 04:48:34;;;;;;;;;42.33;33.33;;;;;0.39;61.66;101579.28;2031786;28;3603832;-74
2024/01/14 04:49:46;;;;;;;;;42.00;28.00;;;;;0.39;61.65;101576.72;2031230;28;3595082;-74
2024/01/14 04:50:58;;;;;;;;;45.67;32.67;;;;;0.41;61.46;101577.63;2026402;28;3595109;-74
2024/01/14 04:52:10;;;;;;;;;49.80;35.40;;;;;0.43;61.91;101575.06;2041657;28;1844048;-73
2024/01/14 04:53:22;;;;;;;;;43.67;29.00;;;;;0.43;61.77;101575.94;1991306;28;3598686;-74
2024/01/14 04:54:35;;;;;;;;;43.57;36.57;;;;;0.44;61.42;101569.91;2033004;28;3585688;-74
2024/01/14 04:55:47;;;;;;;;;44.67;34.33;;;;;0.44;61.37;101572.50;2009532;28;3587775;-74
2024/01/14 04:56:59;;;;;;;;;39.00;26.00;;;;;0.43;61.23;101570.75;2032469;28;3623186;-74
2024/01/14 04:58:12;;;;;;;;;36.33;28.50;;;;;0.43;61.36;101570.75;2016483;28;2846074;-74
2024/01/14 04:59:22;;;;;;;;;21.00;18.50;;;;;0.44;61.15;101577.66;2005285;28;2817986;-74
2024/01/14 05:00:35;;;;;;;;;37.00;30.00;;;;;0.45;61.49;101570.78;2007722;28;2835657;-74
2024/01/14 05:01:46;;;;;;;;;46.00;31.00;;;;;0.43;61.35;101573.34;1990813;28;3616893;-74
2024/01/14 05:02:58;;;;;;;;;34.67;26.33;;;;;0.44;61.62;101572.50;2007407;28;3590891;-73
2024/01/14 05:04:10;;;;;;;;;34.67;25.33;;;;;0.46;61.36;101574.25;2031372;28;3584655;-74
2024/01/14 05:05:23;;;;;;;;;42.71;32.57;;;;;0.46;61.78;101574.25;2031161;28;3602311;-74
2024/01/14 05:06:35;;;;;;;;;41.33;32.67;;;;;0.45;61.61;101573.38;2009549;28;2862886;-74
2024/01/14 05:07:46;;;;;;;;;35.00;30.00;;;;;0.45;61.72;101575.97;2013922;28;3574219;-74
2024/01/14 05:08:59;;;;;;;;;38.60;29.00;;;;;0.47;61.59;101576.00;2041551;28;1845192;-74
2024/01/14 05:10:11;;;;;;;;;41.67;28.67;;;;;0.46;61.33;101576.84;1982149;28;3570032;-74
2024/01/14 05:11:22;;;;;;;;;49.67;34.00;;;;;0.44;61.13;101572.50;2017456;28;3594340;-74
2024/01/14 05:12:36;;;;;;;;;37.83;30.83;;;;;0.44;61.69;101580.25;2048047;28;2848122;-74
2024/01/14 05:13:47;;;;;;;;;37.33;26.33;;;;;0.44;61.77;101575.06;1990769;28;3589810;-74
2024/01/14 05:14:58;;;;;;;;;35.00;28.00;;;;;0.44;62.03;101566.47;2018207;28;2814897;-74
2024/01/14 05:16:10;;;;;;;;;37.67;31.67;;;;;0.43;61.45;101563.00;2009938;28;3573671;-74
2024/01/14 05:17:23;;;;;;;;;43.33;31.33;;;;;0.42;61.75;101569.00;2032876;28;3581529;-74
2024/01/14 05:18:34;;;;;;;;;46.00;32.33;;;;;0.42;61.36;101563.81;2015540;28;3585644;-74
2024/01/14 05:19:47;;;;;;;;;40.00;34.71;;;;;0.41;61.09;101562.09;2030634;28;3580448;-74
2024/01/14 05:20:59;;;;;;;;;38.67;26.67;;;;;0.41;61.37;101558.63;2005382;28;3597126;-74
2024/01/14 05:22:11;;;;;;;;;36.67;29.00;;;;;0.42;61.34;101566.41;2031380;28;3595055;-73
2024/01/14 05:23:23;;;;;;;;;43.00;33.00;;;;;0.42;61.88;101565.56;2031562;28;3591913;-74
2024/01/14 05:24:35;;;;;;;;;45.33;32.00;;;;;0.41;61.50;101569.84;2030886;28;3611697;-74